sensor_id;sensor_type;location;lat;lon;timestamp;temperature;humidity
52397;DHT22;38322;53.108;6.308;2023-04-15T05:02:44;3.30;99.90
52397;DHT22;38322;53.108;6.308;2023-04-15T05:05:10;3.40;99.90
52397;DHT22;38322;53.108;6.308;2023-04-15T05:07:36;3.40;99.90
52397;DHT22;38322;53.108;6.308;2023-04-15T05:10:03;3.40;99.90
52397;DHT22;38322;53.108;6.308;2023-04-15T05:12:29;3.50;99.90
52397;DHT22;38322;53.108;6.308;2023-04-15T05:14:55;3.50;99.90
52397;DHT22;38322;53.108;6.308;2023-04-15T05:17:21;3.60;99.90
52397;DHT22;38322;53.108;6.308;2023-04-15T05:19:46;3.70;99.90
52397;DHT22;38322;53.108;6.308;2023-04-15T05:22:12;3.70;99.90
52397;DHT22;38322;53.108;6.308;2023-04-15T05:24:38;3.90;99.90
52397;DHT22;38322;53.108;6.308;2023-04-15T05:27:04;4.00;99.90
52397;DHT22;38322;53.108;6.308;2023-04-15T05:29:30;4.00;99.90
52397;DHT22;38322;53.108;6.308;2023-04-15T05:31:56;4.10;99.90
52397;DHT22;38322;53.108;6.308;2023-04-15T05:34:22;4.20;99.90
52397;DHT22;38322;53.108;6.308;2023-04-15T05:36:47;4.30;99.90
52397;DHT22;38322;53.108;6.308;2023-04-15T05:39:13;4.40;99.90
52397;DHT22;38322;53.108;6.308;2023-04-15T05:41:39;4.60;99.90
52397;DHT22;38322;53.108;6.308;2023-04-15T05:44:05;4.70;99.90
52397;DHT22;38322;53.108;6.308;2023-04-15T05:46:31;4.80;99.90
52397;DHT22;38322;53.108;6.308;2023-04-15T05:48:57;4.90;99.90
52397;DHT22;38322;53.108;6.308;2023-04-15T05:51:22;5.00;99.90
52397;DHT22;38322;53.108;6.308;2023-04-15T05:53:48;5.00;99.90
52397;DHT22;38322;53.108;6.308;2023-04-15T05:56:14;5.10;99.90
52397;DHT22;38322;53.108;6.308;2023-04-15T05:58:40;5.20;99.90
52397;DHT22;38322;53.108;6.308;2023-04-15T06:01:06;5.20;99.90
52397;DHT22;38322;53.108;6.308;2023-04-15T06:03:32;5.20;99.90
52397;DHT22;38322;53.108;6.308;2023-04-15T06:05:58;5.30;99.90
52397;DHT22;38322;53.108;6.308;2023-04-15T06:08:23;5.30;99.90
52397;DHT22;38322;53.108;6.308;2023-04-15T06:10:49;5.40;99.90
52397;DHT22;38322;53.108;6.308;2023-04-15T06:13:15;5.50;99.90
52397;DHT22;38322;53.108;6.308;2023-04-15T06:15:41;5.60;99.90
52397;DHT22;38322;53.108;6.308;2023-04-15T06:18:07;5.70;99.90
52397;DHT22;38322;53.108;6.308;2023-04-15T06:20:33;5.70;99.90
52397;DHT22;38322;53.108;6.308;2023-04-15T06:22:59;5.80;99.90
52397;DHT22;38322;53.108;6.308;2023-04-15T06:25:25;5.90;99.90
52397;DHT22;38322;53.108;6.308;2023-04-15T06:27:51;5.90;99.90
52397;DHT22;38322;53.108;6.308;2023-04-15T06:30:16;5.90;99.90
52397;DHT22;38322;53.108;6.308;2023-04-15T06:32:42;6.00;99.90
52397;DHT22;38322;53.108;6.308;2023-04-15T06:35:08;6.10;99.90
52397;DHT22;38322;53.108;6.308;2023-04-15T06:37:34;6.10;99.90
52397;DHT22;38322;53.108;6.308;2023-04-15T06:40:00;6.20;99.90
52397;DHT22;38322;53.108;6.308;2023-04-15T06:42:26;6.30;99.90
52397;DHT22;38322;53.108;6.308;2023-04-15T06:44:52;6.40;99.90
52397;DHT22;38322;53.108;6.308;2023-04-15T06:47:18;6.60;99.90
52397;DHT22;38322;53.108;6.308;2023-04-15T06:49:44;6.70;99.90
52397;DHT22;38322;53.108;6.308;2023-04-15T06:52:10;6.80;99.90
52397;DHT22;38322;53.108;6.308;2023-04-15T06:54:36;7.10;99.90
52397;DHT22;38322;53.108;6.308;2023-04-15T06:57:02;7.20;99.90
52397;DHT22;38322;53.108;6.308;2023-04-15T06:59:28;7.40;99.90
52397;DHT22;38322;53.108;6.308;2023-04-15T07:01:53;7.50;99.90
52397;DHT22;38322;53.108;6.308;2023-04-15T07:04:20;7.60;99.90
52397;DHT22;38322;53.108;6.308;2023-04-15T07:06:46;7.70;99.90
52397;DHT22;38322;53.108;6.308;2023-04-15T07:09:11;7.90;99.90
52397;DHT22;38322;53.108;6.308;2023-04-15T07:11:38;7.90;99.90
52397;DHT22;38322;53.108;6.308;2023-04-15T07:14:03;8.00;99.90
52397;DHT22;38322;53.108;6.308;2023-04-15T07:16:29;8.00;99.90
52397;DHT22;38322;53.108;6.308;2023-04-15T07:18:55;8.10;99.90
52397;DHT22;38322;53.108;6.308;2023-04-15T07:21:21;8.20;99.90
52397;DHT22;38322;53.108;6.308;2023-04-15T07:23:48;8.20;99.90
52397;DHT22;38322;53.108;6.308;2023-04-15T07:26:14;8.20;99.90
52397;DHT22;38322;53.108;6.308;2023-04-15T07:28:40;8.30;99.90
52397;DHT22;38322;53.108;6.308;2023-04-15T07:31:06;8.40;99.90
52397;DHT22;38322;53.108;6.308;2023-04-15T07:33:31;8.50;99.90
52397;DHT22;38322;53.108;6.308;2023-04-15T07:35:57;8.60;99.90
52397;DHT22;38322;53.108;6.308;2023-04-15T07:38:24;8.60;99.90
52397;DHT22;38322;53.108;6.308;2023-04-15T07:40:50;8.70;99.90
52397;DHT22;38322;53.108;6.308;2023-04-15T07:43:16;8.80;99.90
52397;DHT22;38322;53.108;6.308;2023-04-15T07:45:42;8.90;99.90
52397;DHT22;38322;53.108;6.308;2023-04-15T07:48:08;9.00;99.90
52397;DHT22;38322;53.108;6.308;2023-04-15T07:50:34;9.00;99.90
52397;DHT22;38322;53.108;6.308;2023-04-15T07:52:59;9.10;99.90
52397;DHT22;38322;53.108;6.308;2023-04-15T07:55:25;9.00;99.90
52397;DHT22;38322;53.108;6.308;2023-04-15T07:57:51;9.10;99.90
52397;DHT22;38322;53.108;6.308;2023-04-15T08:00:17;9.00;99.90
52397;DHT22;38322;53.108;6.308;2023-04-15T08:02:43;9.00;99.90
52397;DHT22;38322;53.108;6.308;2023-04-15T08:05:12;9.00;99.90
52397;DHT22;38322;53.108;6.308;2023-04-15T08:07:38;9.00;99.90
52397;DHT22;38322;53.108;6.308;2023-04-15T08:10:04;9.00;99.90
52397;DHT22;38322;53.108;6.308;2023-04-15T08:12:30;9.00;99.90
52397;DHT22;38322;53.108;6.308;2023-04-15T08:14:56;9.00;99.90
52397;DHT22;38322;53.108;6.308;2023-04-15T08:17:22;9.00;99.90
52397;DHT22;38322;53.108;6.308;2023-04-15T08:19:48;9.00;99.90
52397;DHT22;38322;53.108;6.308;2023-04-15T08:22:14;9.00;99.90
52397;DHT22;38322;53.108;6.308;2023-04-15T08:24:40;9.00;99.90
52397;DHT22;38322;53.108;6.308;2023-04-15T08:27:06;8.90;99.90
52397;DHT22;38322;53.108;6.308;2023-04-15T08:29:33;8.80;99.90
52397;DHT22;38322;53.108;6.308;2023-04-15T08:31:59;8.80;99.90
52397;DHT22;38322;53.108;6.308;2023-04-15T08:34:26;8.80;99.90
52397;DHT22;38322;53.108;6.308;2023-04-15T08:36:52;8.80;99.90
52397;DHT22;38322;53.108;6.308;2023-04-15T08:39:18;8.80;99.90
52397;DHT22;38322;53.108;6.308;2023-04-15T08:41:46;8.80;99.90
52397;DHT22;38322;53.108;6.308;2023-04-15T08:44:13;8.80;99.90
52397;DHT22;38322;53.108;6.308;2023-04-15T08:46:40;8.70;99.90
52397;DHT22;38322;53.108;6.308;2023-04-15T08:49:11;8.70;99.90
52397;DHT22;38322;53.108;6.308;2023-04-15T08:51:39;8.80;99.90
52397;DHT22;38322;53.108;6.308;2023-04-15T08:54:06;8.80;99.90
52397;DHT22;38322;53.108;6.308;2023-04-15T08:56:33;8.80;99.90
52397;DHT22;38322;53.108;6.308;2023-04-15T08:58:59;8.70;99.90
52397;DHT22;38322;53.108;6.308;2023-04-15T09:01:25;8.70;99.90
52397;DHT22;38322;53.108;6.308;2023-04-15T09:03:52;8.70;99.90
52397;DHT22;38322;53.108;6.308;2023-04-15T09:06:20;8.80;99.90
52397;DHT22;38322;53.108;6.308;2023-04-15T09:08:46;8.90;99.90
52397;DHT22;38322;53.108;6.308;2023-04-15T09:11:12;8.90;99.90
52397;DHT22;38322;53.108;6.308;2023-04-15T09:13:38;8.80;99.90
52397;DHT22;38322;53.108;6.308;2023-04-15T09:16:05;8.90;99.90
52397;DHT22;38322;53.108;6.308;2023-04-15T09:18:34;9.00;99.90
52397;DHT22;38322;53.108;6.308;2023-04-15T09:21:05;9.00;99.90
52397;DHT22;38322;53.108;6.308;2023-04-15T09:23:34;8.80;99.90
52397;DHT22;38322;53.108;6.308;2023-04-15T09:26:01;8.80;99.90
52397;DHT22;38322;53.108;6.308;2023-04-15T09:28:27;8.70;99.90
52397;DHT22;38322;53.108;6.308;2023-04-15T09:30:56;8.70;99.90
52397;DHT22;38322;53.108;6.308;2023-04-15T09:33:23;8.60;99.90
52397;DHT22;38322;53.108;6.308;2023-04-15T09:36:00;8.70;99.90
52397;DHT22;38322;53.108;6.308;2023-04-15T09:38:26;8.70;99.90
52397;DHT22;38322;53.108;6.308;2023-04-15T09:40:52;8.90;99.90
52397;DHT22;38322;53.108;6.308;2023-04-15T09:43:18;9.00;99.90
52397;DHT22;38322;53.108;6.308;2023-04-15T09:45:50;9.20;99.90
52397;DHT22;38322;53.108;6.308;2023-04-15T09:48:20;9.40;99.90
52397;DHT22;38322;53.108;6.308;2023-04-15T09:50:48;9.50;99.90
52397;DHT22;38322;53.108;6.308;2023-04-15T09:53:17;9.50;99.90
52397;DHT22;38322;53.108;6.308;2023-04-15T09:55:45;9.50;99.90
52397;DHT22;38322;53.108;6.308;2023-04-15T09:58:24;9.60;99.90
52397;DHT22;38322;53.108;6.308;2023-04-15T10:00:52;9.80;99.90
52397;DHT22;38322;53.108;6.308;2023-04-15T10:03:22;9.80;99.90
52397;DHT22;38322;53.108;6.308;2023-04-15T10:05:49;9.90;99.90
52397;DHT22;38322;53.108;6.308;2023-04-15T10:08:17;9.80;99.90
52397;DHT22;38322;53.108;6.308;2023-04-15T10:10:44;9.70;99.90
52397;DHT22;38322;53.108;6.308;2023-04-15T10:13:13;9.60;99.90
52397;DHT22;38322;53.108;6.308;2023-04-15T10:15:43;9.60;99.90
52397;DHT22;38322;53.108;6.308;2023-04-15T10:18:10;9.60;99.90
52397;DHT22;38322;53.108;6.308;2023-04-15T10:20:37;9.60;99.90
52397;DHT22;38322;53.108;6.308;2023-04-15T10:23:05;9.60;99.90
52397;DHT22;38322;53.108;6.308;2023-04-15T10:25:32;9.60;99.90
52397;DHT22;38322;53.108;6.308;2023-04-15T10:27:59;9.60;99.90
52397;DHT22;38322;53.108;6.308;2023-04-15T10:30:25;9.60;99.90
52397;DHT22;38322;53.108;6.308;2023-04-15T10:32:51;9.50;99.90
52397;DHT22;38322;53.108;6.308;2023-04-15T10:35:19;9.40;99.90
52397;DHT22;38322;53.108;6.308;2023-04-15T10:37:46;9.40;99.90
52397;DHT22;38322;53.108;6.308;2023-04-15T10:40:31;9.40;99.90
52397;DHT22;38322;53.108;6.308;2023-04-15T10:43:00;9.50;99.90
52397;DHT22;38322;53.108;6.308;2023-04-15T10:45:34;9.50;99.90
52397;DHT22;38322;53.108;6.308;2023-04-15T10:48:03;9.60;99.90
52397;DHT22;38322;53.108;6.308;2023-04-15T10:50:31;9.50;99.90
52397;DHT22;38322;53.108;6.308;2023-04-15T10:52:58;9.50;99.90
52397;DHT22;38322;53.108;6.308;2023-04-15T10:55:25;9.40;99.90
52397;DHT22;38322;53.108;6.308;2023-04-15T10:57:53;9.30;99.90
52397;DHT22;38322;53.108;6.308;2023-04-15T11:00:23;9.40;99.90
52397;DHT22;38322;53.108;6.308;2023-04-15T11:02:54;9.40;99.90
52397;DHT22;38322;53.108;6.308;2023-04-15T11:05:22;9.40;99.90
52397;DHT22;38322;53.108;6.308;2023-04-15T11:08:08;9.40;99.90
52397;DHT22;38322;53.108;6.308;2023-04-15T11:13:05;9.30;99.90
52397;DHT22;38322;53.108;6.308;2023-04-15T11:15:40;9.30;99.90
52397;DHT22;38322;53.108;6.308;2023-04-15T11:20:35;9.20;99.90
52397;DHT22;38322;53.108;6.308;2023-04-15T11:23:02;9.20;99.90
52397;DHT22;38322;53.108;6.308;2023-04-15T11:25:31;9.20;99.90
52397;DHT22;38322;53.108;6.308;2023-04-15T11:27:58;9.20;99.90
52397;DHT22;38322;53.108;6.308;2023-04-15T11:30:26;9.30;99.90
52397;DHT22;38322;53.108;6.308;2023-04-15T11:32:58;9.30;99.90
52397;DHT22;38322;53.108;6.308;2023-04-15T11:35:24;9.30;99.90
52397;DHT22;38322;53.108;6.308;2023-04-15T11:37:51;9.40;99.90
52397;DHT22;38322;53.108;6.308;2023-04-15T11:40:22;9.40;99.90
52397;DHT22;38322;53.108;6.308;2023-04-15T11:43:07;9.30;99.90
52397;DHT22;38322;53.108;6.308;2023-04-15T11:45:34;9.20;99.90
52397;DHT22;38322;53.108;6.308;2023-04-15T11:48:07;9.20;99.90
52397;DHT22;38322;53.108;6.308;2023-04-15T11:50:34;9.30;99.90
52397;DHT22;38322;53.108;6.308;2023-04-15T11:53:04;9.40;99.90
52397;DHT22;38322;53.108;6.308;2023-04-15T11:55:30;9.50;99.90
52397;DHT22;38322;53.108;6.308;2023-04-15T11:58:14;9.50;99.90
52397;DHT22;38322;53.108;6.308;2023-04-15T12:00:44;9.40;99.90
52397;DHT22;38322;53.108;6.308;2023-04-15T12:03:16;9.30;99.90
52397;DHT22;38322;53.108;6.308;2023-04-15T12:08:48;9.20;99.90
52397;DHT22;38322;53.108;6.308;2023-04-15T12:11:15;9.30;99.90
52397;DHT22;38322;53.108;6.308;2023-04-15T12:13:44;9.30;99.90
52397;DHT22;38322;53.108;6.308;2023-04-15T12:16:10;9.20;99.90
52397;DHT22;38322;53.108;6.308;2023-04-15T12:18:37;9.20;99.90
52397;DHT22;38322;53.108;6.308;2023-04-15T12:21:09;9.20;99.90
52397;DHT22;38322;53.108;6.308;2023-04-15T12:23:37;9.10;99.90
52397;DHT22;38322;53.108;6.308;2023-04-15T12:26:04;9.10;99.90
52397;DHT22;38322;53.108;6.308;2023-04-15T12:28:32;9.00;99.90
52397;DHT22;38322;53.108;6.308;2023-04-15T12:30:58;9.00;99.90
52397;DHT22;38322;53.108;6.308;2023-04-15T12:33:32;9.00;99.90
52397;DHT22;38322;53.108;6.308;2023-04-15T12:35:58;9.00;99.90
52397;DHT22;38322;53.108;6.308;2023-04-15T12:38:24;9.00;99.90
52397;DHT22;38322;53.108;6.308;2023-04-15T12:40:49;9.00;99.90
52397;DHT22;38322;53.108;6.308;2023-04-15T12:43:16;9.00;99.90
52397;DHT22;38322;53.108;6.308;2023-04-15T12:45:41;9.00;99.90
52397;DHT22;38322;53.108;6.308;2023-04-15T12:48:07;9.00;99.90
52397;DHT22;38322;53.108;6.308;2023-04-15T12:50:34;9.10;99.90
52397;DHT22;38322;53.108;6.308;2023-04-15T12:53:01;9.10;99.90
52397;DHT22;38322;53.108;6.308;2023-04-15T12:55:28;9.10;99.90
52397;DHT22;38322;53.108;6.308;2023-04-15T12:57:56;9.10;99.90
52397;DHT22;38322;53.108;6.308;2023-04-15T13:00:22;9.10;99.90
52397;DHT22;38322;53.108;6.308;2023-04-15T13:02:48;9.10;99.90
52397;DHT22;38322;53.108;6.308;2023-04-15T13:05:14;9.00;99.90
52397;DHT22;38322;53.108;6.308;2023-04-15T13:07:42;9.00;99.90
52397;DHT22;38322;53.108;6.308;2023-04-15T13:10:08;9.10;99.90
52397;DHT22;38322;53.108;6.308;2023-04-15T13:12:34;9.20;99.90
52397;DHT22;38322;53.108;6.308;2023-04-15T13:15:02;9.30;99.90
52397;DHT22;38322;53.108;6.308;2023-04-15T13:17:28;9.40;99.90
52397;DHT22;38322;53.108;6.308;2023-04-15T13:19:54;9.40;99.90
52397;DHT22;38322;53.108;6.308;2023-04-15T13:22:20;9.50;99.90
52397;DHT22;38322;53.108;6.308;2023-04-15T13:24:46;9.40;99.90
52397;DHT22;38322;53.108;6.308;2023-04-15T13:27:12;9.30;99.90
52397;DHT22;38322;53.108;6.308;2023-04-15T13:29:38;9.30;99.90
52397;DHT22;38322;53.108;6.308;2023-04-15T13:32:05;9.20;99.90
52397;DHT22;38322;53.108;6.308;2023-04-15T13:34:31;9.20;99.90
52397;DHT22;38322;53.108;6.308;2023-04-15T13:36:57;9.20;99.90
52397;DHT22;38322;53.108;6.308;2023-04-15T13:39:23;9.20;99.90
52397;DHT22;38322;53.108;6.308;2023-04-15T13:41:49;9.10;99.90
52397;DHT22;38322;53.108;6.308;2023-04-15T13:44:15;9.10;99.90
52397;DHT22;38322;53.108;6.308;2023-04-15T13:46:41;9.10;99.90
52397;DHT22;38322;53.108;6.308;2023-04-15T13:49:07;9.10;99.90
52397;DHT22;38322;53.108;6.308;2023-04-15T13:51:33;9.10;99.90
52397;DHT22;38322;53.108;6.308;2023-04-15T13:54:01;9.10;99.90
52397;DHT22;38322;53.108;6.308;2023-04-15T13:56:28;9.10;99.90
52397;DHT22;38322;53.108;6.308;2023-04-15T13:58:54;9.10;99.90
52397;DHT22;38322;53.108;6.308;2023-04-15T14:01:24;9.00;99.90
52397;DHT22;38322;53.108;6.308;2023-04-15T14:03:50;9.10;99.90
52397;DHT22;38322;53.108;6.308;2023-04-15T14:06:16;9.00;99.90
52397;DHT22;38322;53.108;6.308;2023-04-15T14:08:42;9.00;99.90
52397;DHT22;38322;53.108;6.308;2023-04-15T14:11:07;9.00;99.90
52397;DHT22;38322;53.108;6.308;2023-04-15T14:13:33;8.90;99.90
52397;DHT22;38322;53.108;6.308;2023-04-15T14:15:59;8.80;99.90
52397;DHT22;38322;53.108;6.308;2023-04-15T14:18:25;8.80;99.90
52397;DHT22;38322;53.108;6.308;2023-04-15T14:20:51;8.70;99.90
52397;DHT22;38322;53.108;6.308;2023-04-15T14:23:17;8.70;99.90
52397;DHT22;38322;53.108;6.308;2023-04-15T14:25:43;8.60;99.90
52397;DHT22;38322;53.108;6.308;2023-04-15T14:28:08;8.60;99.90
52397;DHT22;38322;53.108;6.308;2023-04-15T14:30:35;8.60;99.90
52397;DHT22;38322;53.108;6.308;2023-04-15T14:33:00;8.60;99.90
52397;DHT22;38322;53.108;6.308;2023-04-15T14:35:26;8.60;99.90
52397;DHT22;38322;53.108;6.308;2023-04-15T14:37:53;8.50;99.90
52397;DHT22;38322;53.108;6.308;2023-04-15T14:40:20;8.50;99.90
52397;DHT22;38322;53.108;6.308;2023-04-15T14:42:46;8.50;99.90
52397;DHT22;38322;53.108;6.308;2023-04-15T14:45:12;8.50;99.90
52397;DHT22;38322;53.108;6.308;2023-04-15T14:47:38;8.50;99.90
52397;DHT22;38322;53.108;6.308;2023-04-15T14:50:04;8.50;99.90
52397;DHT22;38322;53.108;6.308;2023-04-15T14:52:31;8.50;99.90
52397;DHT22;38322;53.108;6.308;2023-04-15T14:55:05;8.40;99.90
52397;DHT22;38322;53.108;6.308;2023-04-15T14:57:31;8.40;99.90
52397;DHT22;38322;53.108;6.308;2023-04-15T14:59:57;8.40;99.90
52397;DHT22;38322;53.108;6.308;2023-04-15T15:02:24;8.40;99.90
52397;DHT22;38322;53.108;6.308;2023-04-15T15:04:50;8.30;99.90
52397;DHT22;38322;53.108;6.308;2023-04-15T15:07:16;8.30;99.90
52397;DHT22;38322;53.108;6.308;2023-04-15T15:09:41;8.30;99.90
52397;DHT22;38322;53.108;6.308;2023-04-15T15:12:07;8.30;99.90
52397;DHT22;38322;53.108;6.308;2023-04-15T15:14:33;8.30;99.90
52397;DHT22;38322;53.108;6.308;2023-04-15T15:16:59;8.30;99.90
52397;DHT22;38322;53.108;6.308;2023-04-15T15:19:26;8.30;99.90
52397;DHT22;38322;53.108;6.308;2023-04-15T15:21:52;8.30;99.90
52397;DHT22;38322;53.108;6.308;2023-04-15T15:24:18;8.30;99.90
52397;DHT22;38322;53.108;6.308;2023-04-15T15:26:44;8.20;99.90
52397;DHT22;38322;53.108;6.308;2023-04-15T15:29:09;8.20;99.90
52397;DHT22;38322;53.108;6.308;2023-04-15T15:31:35;8.20;99.90
52397;DHT22;38322;53.108;6.308;2023-04-15T15:34:02;8.10;99.90
52397;DHT22;38322;53.108;6.308;2023-04-15T15:36:29;8.10;99.90
52397;DHT22;38322;53.108;6.308;2023-04-15T15:38:56;8.10;99.90
52397;DHT22;38322;53.108;6.308;2023-04-15T15:41:23;8.00;99.90
52397;DHT22;38322;53.108;6.308;2023-04-15T15:43:50;8.00;99.90
52397;DHT22;38322;53.108;6.308;2023-04-15T15:46:16;8.00;99.90
52397;DHT22;38322;53.108;6.308;2023-04-15T15:48:42;8.00;99.90
52397;DHT22;38322;53.108;6.308;2023-04-15T15:51:08;8.00;99.90
52397;DHT22;38322;53.108;6.308;2023-04-15T15:53:34;7.90;99.90
52397;DHT22;38322;53.108;6.308;2023-04-15T15:56:00;7.90;99.90
52397;DHT22;38322;53.108;6.308;2023-04-15T15:58:29;7.90;99.90
52397;DHT22;38322;53.108;6.308;2023-04-15T16:00:55;7.90;99.90
52397;DHT22;38322;53.108;6.308;2023-04-15T16:03:22;7.90;99.90
52397;DHT22;38322;53.108;6.308;2023-04-15T16:05:48;7.90;99.90
52397;DHT22;38322;53.108;6.308;2023-04-15T16:08:14;7.90;99.90
52397;DHT22;38322;53.108;6.308;2023-04-15T16:10:40;7.80;99.90
52397;DHT22;38322;53.108;6.308;2023-04-15T16:13:07;7.90;99.90
52397;DHT22;38322;53.108;6.308;2023-04-15T16:15:33;7.80;99.90
52397;DHT22;38322;53.108;6.308;2023-04-15T16:17:59;7.80;99.90
52397;DHT22;38322;53.108;6.308;2023-04-15T16:20:25;7.80;99.90
52397;DHT22;38322;53.108;6.308;2023-04-15T16:22:54;7.80;99.90
52397;DHT22;38322;53.108;6.308;2023-04-15T16:25:20;7.80;99.90
52397;DHT22;38322;53.108;6.308;2023-04-15T16:27:46;7.80;99.90
52397;DHT22;38322;53.108;6.308;2023-04-15T16:30:12;7.80;99.90
52397;DHT22;38322;53.108;6.308;2023-04-15T16:32:38;7.80;99.90
52397;DHT22;38322;53.108;6.308;2023-04-15T16:35:05;7.70;99.90
52397;DHT22;38322;53.108;6.308;2023-04-15T16:37:31;7.70;99.90
52397;DHT22;38322;53.108;6.308;2023-04-15T16:39:57;7.70;99.90
52397;DHT22;38322;53.108;6.308;2023-04-15T16:42:24;7.70;99.90
52397;DHT22;38322;53.108;6.308;2023-04-15T16:44:49;7.70;99.90
52397;DHT22;38322;53.108;6.308;2023-04-15T16:47:15;7.70;99.90
52397;DHT22;38322;53.108;6.308;2023-04-15T16:49:41;7.70;99.90
52397;DHT22;38322;53.108;6.308;2023-04-15T16:52:07;7.70;99.90
52397;DHT22;38322;53.108;6.308;2023-04-15T16:54:33;7.70;99.90
52397;DHT22;38322;53.108;6.308;2023-04-15T16:57:02;7.70;99.90
52397;DHT22;38322;53.108;6.308;2023-04-15T16:59:28;7.60;99.90
52397;DHT22;38322;53.108;6.308;2023-04-15T17:01:54;7.60;99.90
52397;DHT22;38322;53.108;6.308;2023-04-15T17:04:19;7.60;99.90
52397;DHT22;38322;53.108;6.308;2023-04-15T17:06:45;7.60;99.90
52397;DHT22;38322;53.108;6.308;2023-04-15T17:09:11;7.60;99.90
52397;DHT22;38322;53.108;6.308;2023-04-15T17:11:37;7.60;99.90
52397;DHT22;38322;53.108;6.308;2023-04-15T17:14:06;7.60;99.90
52397;DHT22;38322;53.108;6.308;2023-04-15T17:16:32;7.60;99.90
52397;DHT22;38322;53.108;6.308;2023-04-15T17:18:58;7.60;99.90
52397;DHT22;38322;53.108;6.308;2023-04-15T17:21:25;7.60;99.90
52397;DHT22;38322;53.108;6.308;2023-04-15T17:23:50;7.60;99.90
52397;DHT22;38322;53.108;6.308;2023-04-15T17:26:17;7.60;99.90
52397;DHT22;38322;53.108;6.308;2023-04-15T17:28:44;7.60;99.90
52397;DHT22;38322;53.108;6.308;2023-04-15T17:31:10;7.60;99.90
52397;DHT22;38322;53.108;6.308;2023-04-15T17:33:37;7.60;99.90
52397;DHT22;38322;53.108;6.308;2023-04-15T17:36:03;7.60;99.90
52397;DHT22;38322;53.108;6.308;2023-04-15T17:38:30;7.60;99.90
52397;DHT22;38322;53.108;6.308;2023-04-15T17:40:55;7.60;99.90
52397;DHT22;38322;53.108;6.308;2023-04-15T17:43:21;7.60;99.90
52397;DHT22;38322;53.108;6.308;2023-04-15T17:45:47;7.60;99.90
52397;DHT22;38322;53.108;6.308;2023-04-15T17:48:13;7.60;99.90
52397;DHT22;38322;53.108;6.308;2023-04-15T17:50:39;7.60;99.90
52397;DHT22;38322;53.108;6.308;2023-04-15T17:53:05;7.60;99.90
52397;DHT22;38322;53.108;6.308;2023-04-15T17:55:32;7.60;99.90
52397;DHT22;38322;53.108;6.308;2023-04-15T17:57:59;7.60;99.90
52397;DHT22;38322;53.108;6.308;2023-04-15T18:00:25;7.60;99.90
52397;DHT22;38322;53.108;6.308;2023-04-15T18:02:50;7.60;99.90
52397;DHT22;38322;53.108;6.308;2023-04-15T18:05:17;7.60;99.90
52397;DHT22;38322;53.108;6.308;2023-04-15T18:07:44;7.60;99.90
52397;DHT22;38322;53.108;6.308;2023-04-15T18:10:10;7.60;99.90
52397;DHT22;38322;53.108;6.308;2023-04-15T18:12:36;7.50;99.90
52397;DHT22;38322;53.108;6.308;2023-04-15T18:15:02;7.60;99.90
52397;DHT22;38322;53.108;6.308;2023-04-15T18:17:29;7.50;99.90
52397;DHT22;38322;53.108;6.308;2023-04-15T18:19:55;7.50;99.90
52397;DHT22;38322;53.108;6.308;2023-04-15T18:22:21;7.50;99.90
52397;DHT22;38322;53.108;6.308;2023-04-15T18:24:46;7.50;99.90
52397;DHT22;38322;53.108;6.308;2023-04-15T18:27:15;7.50;99.90
52397;DHT22;38322;53.108;6.308;2023-04-15T18:29:41;7.50;99.90
52397;DHT22;38322;53.108;6.308;2023-04-15T18:32:08;7.50;99.90
52397;DHT22;38322;53.108;6.308;2023-04-15T18:34:34;7.50;99.90
52397;DHT22;38322;53.108;6.308;2023-04-15T18:37:00;7.50;99.90
52397;DHT22;38322;53.108;6.308;2023-04-15T18:39:26;7.50;99.90
52397;DHT22;38322;53.108;6.308;2023-04-15T18:41:53;7.50;99.90
52397;DHT22;38322;53.108;6.308;2023-04-15T18:44:20;7.50;99.90
52397;DHT22;38322;53.108;6.308;2023-04-15T18:46:47;7.50;99.90
52397;DHT22;38322;53.108;6.308;2023-04-15T18:49:13;7.50;99.90
52397;DHT22;38322;53.108;6.308;2023-04-15T18:51:39;7.50;99.90
52397;DHT22;38322;53.108;6.308;2023-04-15T18:54:06;7.50;99.90
52397;DHT22;38322;53.108;6.308;2023-04-15T18:56:32;7.50;99.90
52397;DHT22;38322;53.108;6.308;2023-04-15T18:58:58;7.50;99.90
52397;DHT22;38322;53.108;6.308;2023-04-15T19:01:23;7.50;99.90
52397;DHT22;38322;53.108;6.308;2023-04-15T19:03:49;7.50;99.90
52397;DHT22;38322;53.108;6.308;2023-04-15T19:06:15;7.50;99.90
52397;DHT22;38322;53.108;6.308;2023-04-15T19:08:41;7.50;99.90
52397;DHT22;38322;53.108;6.308;2023-04-15T19:11:07;7.50;99.90
52397;DHT22;38322;53.108;6.308;2023-04-15T19:13:33;7.50;99.90
52397;DHT22;38322;53.108;6.308;2023-04-15T19:15:59;7.50;99.90
52397;DHT22;38322;53.108;6.308;2023-04-15T19:18:25;7.50;99.90
52397;DHT22;38322;53.108;6.308;2023-04-15T19:20:52;7.50;99.90
52397;DHT22;38322;53.108;6.308;2023-04-15T19:23:21;7.50;99.90
52397;DHT22;38322;53.108;6.308;2023-04-15T19:25:46;7.60;99.90
52397;DHT22;38322;53.108;6.308;2023-04-15T19:28:12;7.60;99.90
52397;DHT22;38322;53.108;6.308;2023-04-15T19:30:39;7.50;99.90
52397;DHT22;38322;53.108;6.308;2023-04-15T19:33:05;7.60;99.90
52397;DHT22;38322;53.108;6.308;2023-04-15T19:35:32;7.60;99.90
52397;DHT22;38322;53.108;6.308;2023-04-15T19:37:58;7.60;99.90
52397;DHT22;38322;53.108;6.308;2023-04-15T19:40:24;7.50;99.90
52397;DHT22;38322;53.108;6.308;2023-04-15T19:42:50;7.60;99.90
52397;DHT22;38322;53.108;6.308;2023-04-15T19:45:16;7.60;99.90
52397;DHT22;38322;53.108;6.308;2023-04-15T19:47:41;7.60;99.90
52397;DHT22;38322;53.108;6.308;2023-04-15T19:50:08;7.60;99.90
52397;DHT22;38322;53.108;6.308;2023-04-15T19:52:36;7.60;99.90
52397;DHT22;38322;53.108;6.308;2023-04-15T19:55:01;7.60;99.90
52397;DHT22;38322;53.108;6.308;2023-04-15T19:57:28;7.60;99.90
52397;DHT22;38322;53.108;6.308;2023-04-15T19:59:54;7.60;99.90
